Time;durP1;ratioP1;P1;durP2;ratioP2;P2;SDS_P1;SDS_P2;PMS_P1;PMS_P2;Temp;Humidity;BMP_temperature;BMP_pressure;BME280_temperature;BME280_humidity;BME280_pressure;Samples;Min_cycle;Max_cycle;Signal;HPM_P1;HPM_P2
2023/11/13 00:00:37;;;;;;;0.45;0.45;;;19.10;59.90;;;17.62;49.32;94399.75;5052251;28;20223;-70
2023/11/13 00:03:07;;;;;;;0.50;0.50;;;19.20;59.90;;;17.67;49.51;94412.25;5051320;28;20187;-70
2023/11/13 00:05:36;;;;;;;0.50;0.50;;;19.20;59.90;;;17.66;49.13;94411.44;5072234;28;20199;-70
2023/11/13 00:08:06;;;;;;;0.40;0.40;;;19.20;59.90;;;17.65;49.39;94415.16;5055258;28;20282;-70
2023/11/13 00:10:34;;;;;;;0.40;0.40;;;19.20;59.90;;;17.64;49.72;94408.25;5055111;28;20219;-70
2023/11/13 00:13:02;;;;;;;0.50;0.50;;;19.20;60.70;;;17.68;49.14;94412.00;5038408;28;20191;-62
2023/11/13 00:15:31;;;;;;;0.40;0.40;;;19.20;59.80;;;17.64;49.50;94412.75;5056107;28;20253;-71
2023/11/13 00:18:01;;;;;;;0.50;0.50;;;19.20;59.80;;;17.68;49.11;94419.16;5056251;28;20266;-68
2023/11/13 00:20:29;;;;;;;0.50;0.50;;;19.20;59.90;;;17.70;48.92;94425.00;5055898;28;20202;-71
2023/11/13 00:22:57;;;;;;;0.50;0.50;;;19.20;59.90;;;17.70;49.05;94430.31;5056194;28;20196;-67
2023/11/13 00:25:24;;;;;;;0.50;0.50;;;19.20;59.80;;;17.59;49.21;94421.47;5055748;28;20713;-69
2023/11/13 00:27:52;;;;;;;0.50;0.50;;;19.20;59.80;;;17.71;49.21;94434.56;5054719;28;20199;-71
2023/11/13 00:30:22;;;;;;;0.47;0.47;;;19.20;59.90;;;17.71;48.90;94431.91;5054461;28;20204;-70
2023/11/13 00:32:50;;;;;;;0.60;0.60;;;19.20;59.80;;;17.73;49.57;94441.22;5054447;28;20216;-68
2023/11/13 00:35:18;;;;;;;0.50;0.50;;;19.20;59.80;;;17.72;49.03;94439.66;5071218;28;20199;-70
2023/11/13 00:37:46;;;;;;;0.50;0.50;;;19.20;59.90;;;17.68;49.49;94435.09;5054638;28;20203;-65
2023/11/13 00:40:14;;;;;;;0.47;0.47;;;19.20;59.80;;;17.76;48.99;94450.56;5037649;28;20204;-71
2023/11/13 00:42:41;;;;;;;0.50;0.50;;;19.20;59.80;;;17.76;49.33;94455.88;5054532;28;20693;-69
2023/11/13 00:45:09;;;;;;;0.50;0.50;;;19.20;59.80;;;17.77;49.60;94458.28;5054468;28;20594;-71
2023/11/13 00:47:37;;;;;;;0.45;0.45;;;19.20;59.90;;;17.71;49.27;94453.97;5071183;28;20255;-71
2023/11/13 00:50:06;;;;;;;0.47;0.47;;;19.20;59.90;;;17.78;49.48;94472.31;5055549;28;20276;-70
2023/11/13 00:52:34;;;;;;;0.50;0.50;;;19.20;59.80;;;17.72;49.48;94465.34;5053828;28;20613;-69
2023/11/13 00:55:04;;;;;;;0.40;0.40;;;19.30;60.00;;;17.79;49.37;94478.44;5054314;28;20678;-63
2023/11/13 00:57:32;;;;;;;0.40;0.40;;;19.20;59.80;;;17.79;49.25;94481.88;5054102;28;20306;-67
2023/11/13 01:00:03;;;;;;;0.50;0.50;;;19.30;60.00;;;17.73;49.32;94467.75;5037754;28;20270;-70
2023/11/13 01:02:30;;;;;;;0.50;0.50;;;19.30;60.00;;;17.73;49.45;94462.44;5070427;28;20697;-69
2023/11/13 01:04:58;;;;;;;0.57;0.57;;;19.30;60.00;;;17.74;49.31;94469.34;5054058;28;20219;-69
2023/11/13 01:07:26;;;;;;;0.50;0.50;;;19.30;59.90;;;17.81;49.14;94476.31;5054317;28;20201;-70
2023/11/13 01:09:55;;;;;;;0.40;0.40;;;19.30;60.00;;;17.83;48.99;94484.84;5054068;28;20200;-69
2023/11/13 01:12:23;;;;;;;0.50;0.50;;;19.30;59.90;;;17.82;49.41;94484.06;5053869;28;20225;-70
2023/11/13 01:14:51;;;;;;;0.40;0.40;;;19.30;59.90;;;17.77;49.58;94484.78;5053494;28;20203;-70
2023/11/13 01:17:18;;;;;;;0.57;0.57;;;19.30;59.90;;;17.76;49.57;94482.41;5037436;28;20223;-69
2023/11/13 01:19:46;;;;;;;0.43;0.43;;;19.30;60.00;;;17.86;49.10;94493.13;5053470;28;20229;-70
2023/11/13 01:22:14;;;;;;;0.40;0.40;;;19.30;59.80;;;17.83;49.19;94482.19;5053782;28;20193;-69
2023/11/13 01:24:41;;;;;;;0.40;0.40;;;19.30;59.90;;;17.88;49.59;94495.50;5037028;28;20227;-70
2023/11/13 01:27:09;;;;;;;0.50;0.50;;;19.30;59.80;;;17.81;49.30;94478.97;5053725;28;20614;-68
2023/11/13 01:29:37;;;;;;;0.50;0.50;;;19.30;59.80;;;17.87;49.12;94483.28;5037088;28;20273;-71
2023/11/13 01:32:05;;;;;;;0.43;0.43;;;19.30;60.30;;;17.88;49.28;94480.41;5037025;28;20680;-64
2023/11/13 01:34:33;;;;;;;0.43;0.43;;;19.30;59.80;;;17.89;49.29;94467.94;5054282;28;20266;-70
2023/11/13 01:37:00;;;;;;;0.55;0.55;;;19.30;59.80;;;17.83;48.96;94451.16;5070256;28;20210;-69
2023/11/13 01:39:28;;;;;;;0.50;0.50;;;19.30;59.80;;;17.90;49.31;94466.88;5053499;28;20249;-70
2023/11/13 01:41:56;;;;;;;0.50;0.50;;;19.40;59.90;;;17.78;49.47;94445.78;5053250;28;20262;-70
2023/11/13 01:44:24;;;;;;;0.40;0.40;;;19.30;59.70;;;17.90;49.01;94458.94;5036569;28;20630;-68
2023/11/13 01:46:52;;;;;;;0.43;0.43;;;19.40;59.80;;;17.90;49.38;94461.59;5054308;28;20192;-69
2023/11/13 01:49:21;;;;;;;0.45;0.45;;;19.40;59.70;;;17.92;49.13;94464.78;5053519;28;20208;-67
2023/11/13 01:51:50;;;;;;;0.45;0.45;;;19.40;59.70;;;17.92;48.74;94475.41;5053362;28;20196;-69
2023/11/13 01:54:20;;;;;;;0.50;0.50;;;19.40;59.60;;;17.91;49.20;94474.59;5069541;28;20262;-70
2023/11/13 01:56:49;;;;;;;0.50;0.50;;;19.30;59.70;;;17.92;49.11;94480.72;5036523;28;20327;-69
2023/11/13 01:59:17;;;;;;;0.40;0.40;;;19.40;59.70;;;17.90;48.84;94475.63;5069590;28;20598;-63
2023/11/13 02:01:45;;;;;;;0.50;0.50;;;19.30;59.60;;;17.88;49.01;94466.31;5053262;28;20200;-68
2023/11/13 02:04:13;;;;;;;0.40;0.40;;;19.30;59.60;;;17.88;49.16;94468.97;5054040;28;20216;-67
2023/11/13 02:06:41;;;;;;;0.40;0.40;;;19.30;59.60;;;17.92;48.90;94475.41;5036657;28;20279;-68
2023/11/13 02:09:13;;;;;;;0.60;0.60;;;19.30;59.60;;;17.89;48.58;94460.78;5053153;28;20203;-71
2023/11/13 02:11:42;;;;;;;0.50;0.50;;;19.30;59.50;;;17.93;49.09;94469.84;5069337;28;20603;-60
2023/11/13 02:14:11;;;;;;;0.47;0.47;;;19.30;59.60;;;17.89;49.06;94459.97;5052578;28;20209;-70
2023/11/13 02:16:39;;;;;;;0.50;0.50;;;19.40;59.70;;;17.93;48.80;94464.53;5053856;28;20202;-69
2023/11/13 02:19:07;;;;;;;0.50;0.50;;;19.30;59.60;;;17.96;49.25;94465.13;5052643;28;20291;-64
2023/11/13 02:21:34;;;;;;;0.50;0.50;;;19.40;60.60;;;17.89;48.89;94444.88;5053751;28;20193;-70
2023/11/13 02:24:04;;;;;;;0.50;0.50;;;19.30;59.50;;;17.96;48.85;94454.53;5036072;28;20211;-68
2023/11/13 02:26:32;;;;;;;0.40;0.40;;;19.40;59.60;;;17.84;48.64;94444.78;5034934;28;20407;-63
2023/11/13 02:29:00;;;;;;;0.43;0.43;;;19.30;59.50;;;17.96;49.04;94457.16;5036384;28;20559;-70
2023/11/13 02:31:28;;;;;;;0.40;0.40;;;19.30;59.50;;;17.89;48.47;94441.41;5052616;28;20193;-67
2023/11/13 02:33:56;;;;;;;0.40;0.40;;;19.40;59.60;;;17.97;48.65;94440.19;5052353;28;20204;-70
2023/11/13 02:36:24;;;;;;;0.40;0.40;;;19.40;59.60;;;17.95;48.64;94440.44;5052188;28;20199;-68
2023/11/13 02:38:51;;;;;;;0.47;0.47;;;19.40;59.60;;;17.85;48.86;94427.84;5052200;28;20204;-70
2023/11/13 02:41:21;;;;;;;0.50;0.50;;;19.40;59.60;;;17.95;48.61;94447.59;5053251;28;20191;-68
2023/11/13 02:43:49;;;;;;;0.50;0.50;;;19.40;59.60;;;17.90;48.67;94435.06;5052601;28;20572;-69
2023/11/13 02:46:16;;;;;;;0.40;0.40;;;19.40;59.50;;;17.88;48.90;94426.53;5051841;28;20215;-64
2023/11/13 02:48:44;;;;;;;0.52;0.52;;;19.40;59.50;;;17.96;48.50;94435.94;5052180;28;20188;-70
2023/11/13 02:51:12;;;;;;;0.47;0.47;;;19.40;59.50;;;17.90;48.80;94424.44;5053265;28;20200;-68
2023/11/13 02:53:39;;;;;;;0.50;0.50;;;19.40;59.50;;;17.96;48.73;94444.69;5035460;28;20323;-71
2023/11/13 02:56:07;;;;;;;0.50;0.50;;;19.40;59.40;;;17.93;48.95;94451.28;5052289;28;20206;-70
2023/11/13 02:58:35;;;;;;;0.45;0.45;;;19.40;59.40;;;17.98;48.83;94457.72;5068331;28;20204;-70
2023/11/13 03:01:05;;;;;;;0.50;0.50;;;19.40;59.50;;;17.95;48.41;94452.91;5051941;28;20210;-67
2023/11/13 03:03:34;;;;;;;0.50;0.50;;;19.30;59.30;;;17.95;48.94;94456.34;5052906;28;20189;-70
2023/11/13 03:06:02;;;;;;;0.40;0.40;;;19.40;59.40;;;17.97;48.70;94464.06;5051778;28;20230;-67
2023/11/13 03:08:29;;;;;;;0.50;0.50;;;19.30;59.30;;;17.95;48.90;94468.84;5051673;28;20274;-69
2023/11/13 03:10:57;;;;;;;0.47;0.47;;;19.30;59.30;;;17.85;48.74;94449.06;5051730;28;20535;-70
2023/11/13 03:13:25;;;;;;;0.43;0.43;;;19.40;59.50;;;17.96;48.31;94465.13;5051703;28;20197;-70
2023/11/13 03:15:52;;;;;;;0.40;0.40;;;19.30;59.40;;;17.96;48.35;94455.31;5068226;28;20248;-68
2023/11/13 03:18:20;;;;;;;0.43;0.43;;;19.40;59.50;;;17.98;48.51;94457.72;5052819;28;20195;-70
2023/11/13 03:20:48;;;;;;;0.40;0.40;;;19.40;59.40;;;17.90;48.85;94441.16;5051560;28;20190;-68
2023/11/13 03:23:17;;;;;;;0.40;0.40;;;19.40;59.40;;;17.90;48.85;94432.41;5051677;28;20217;-70
2023/11/13 03:25:46;;;;;;;0.40;0.40;;;19.40;59.30;;;17.96;48.58;94447.34;5052405;28;20691;-70
2023/11/13 03:28:13;;;;;;;0.40;0.40;;;19.40;59.20;;;17.92;48.91;94438.25;5051445;28;20202;-70
2023/11/13 03:30:41;;;;;;;0.40;0.40;;;19.40;59.20;;;17.97;48.84;94458.75;5052568;28;20552;-68
2023/11/13 03:33:10;;;;;;;0.40;0.40;;;19.40;59.20;;;17.88;48.53;94435.31;5051463;28;20191;-70
2023/11/13 03:35:37;;;;;;;0.60;0.60;;;19.40;59.20;;;17.95;48.64;94445.75;5035275;28;20743;-69
2023/11/13 03:38:05;;;;;;;0.50;0.50;;;19.40;59.10;;;17.89;48.18;94438.75;5051337;28;20200;-70
2023/11/13 03:40:32;;;;;;;0.45;0.45;;;19.40;59.10;;;17.94;48.57;94449.41;5051174;28;20254;-67
2023/11/13 03:43:01;;;;;;;0.50;0.50;;;19.40;59.10;;;17.93;48.71;94437.19;5051266;28;20589;-63
2023/11/13 03:45:28;;;;;;;0.45;0.45;;;19.40;59.10;;;17.86;48.61;94416.19;5050982;28;20220;-70
2023/11/13 03:47:56;;;;;;;0.50;0.50;;;19.30;59.10;;;17.92;48.59;94431.09;5051030;28;20226;-70
2023/11/13 03:50:24;;;;;;;0.40;0.40;;;19.30;59.00;;;17.92;48.47;94431.09;5051203;28;20191;-69
2023/11/13 03:52:52;;;;;;;0.47;0.47;;;19.40;59.10;;;17.86;48.62;94423.34;5034765;28;20245;-63
2023/11/13 03:55:20;;;;;;;0.40;0.40;;;19.30;59.10;;;17.86;48.41;94433.97;5051179;28;20717;-70
2023/11/13 03:57:47;;;;;;;0.40;0.40;;;19.40;59.20;;;17.87;48.55;94435.53;5052474;28;20713;-69
2023/11/13 04:00:15;;;;;;;0.50;0.50;;;19.30;59.10;;;17.92;48.44;94435.63;5051939;28;20290;-70
2023/11/13 04:02:48;;;;;;;0.50;0.50;;;19.30;59.10;;;17.86;48.68;94449.88;5067931;28;20607;-71
2023/11/13 04:05:16;;;;;;;0.50;0.50;;;19.40;59.20;;;17.86;48.71;94439.25;5051076;28;20219;-71
2023/11/13 04:07:44;;;;;;;0.50;0.50;;;19.30;59.00;;;17.92;48.28;94447.00;5068018;28;20646;-70
2023/11/13 04:10:15;;;;;;;0.47;0.47;;;19.30;59.00;;;17.92;48.61;94435.63;5034798;28;20680;-67
2023/11/13 04:12:44;;;;;;;0.50;0.50;;;19.40;59.10;;;17.85;48.45;94429.69;5051102;28;20198;-71
2023/11/13 04:15:12;;;;;;;0.47;0.47;;;19.30;59.00;;;17.88;48.55;94442.44;5051330;28;20195;-68
2023/11/13 04:17:40;;;;;;;0.50;0.50;;;19.30;59.00;;;17.93;48.63;94439.84;5052630;28;20206;-70
2023/11/13 04:20:12;;;;;;;0.45;0.45;;;19.30;59.10;;;17.91;48.32;94432.13;5067817;28;20202;-69
2023/11/13 04:22:41;;;;;;;0.40;0.40;;;19.30;59.00;;;17.86;48.35;94420.69;5051872;28;20232;-71
2023/11/13 04:25:09;;;;;;;0.47;0.47;;;19.40;59.20;;;17.88;48.38;94432.66;5052003;28;20304;-67
2023/11/13 04:27:37;;;;;;;0.40;0.40;;;19.30;59.10;;;17.87;48.27;94428.41;5051239;28;20202;-67
2023/11/13 04:30:07;;;;;;;0.50;0.50;;;19.40;59.10;;;17.93;48.23;94434.53;5051150;28;20227;-71
2023/11/13 04:32:36;;;;;;;0.40;0.40;;;19.30;59.00;;;17.93;48.50;94437.19;5050722;28;20198;-70
2023/11/13 04:35:05;;;;;;;0.40;0.40;;;19.40;59.00;;;17.88;48.66;94415.91;5050663;28;20542;-70
2023/11/13 04:37:34;;;;;;;0.40;0.40;;;19.30;58.90;;;17.92;48.54;94431.09;5050966;28;20202;-69
2023/11/13 04:40:04;;;;;;;0.52;0.52;;;19.40;59.10;;;17.88;48.62;94434.50;5034540;28;20677;-69
2023/11/13 04:42:33;;;;;;;0.50;0.50;;;19.40;59.00;;;17.93;48.37;94447.81;5050886;28;20248;-70
2023/11/13 04:45:04;;;;;;;0.50;0.50;;;19.40;59.10;;;17.86;48.60;94424.13;5050777;28;20307;-70
2023/11/13 04:47:32;;;;;;;0.40;0.40;;;19.40;59.00;;;17.93;48.28;94450.47;5052485;28;20187;-68
2023/11/13 04:50:00;;;;;;;0.50;0.50;;;19.30;58.90;;;17.93;48.49;94453.94;5035966;28;20655;-70
2023/11/13 04:52:28;;;;;;;0.50;0.50;;;19.40;59.10;;;17.93;48.76;94458.41;5055414;28;20199;-68
2023/11/13 04:54:55;;;;;;;0.50;0.50;;;19.40;59.10;;;17.95;48.29;94463.53;5055671;28;20243;-71
2023/11/13 04:57:23;;;;;;;0.50;0.50;;;19.40;59.00;;;17.93;48.23;94464.53;5055579;28;20231;-68
2023/11/13 04:59:51;;;;;;;0.47;0.47;;;19.40;59.10;;;17.89;48.25;94468.75;5054787;28;20201;-62
2023/11/13 05:02:19;;;;;;;0.50;0.50;;;19.40;59.10;;;17.95;48.53;94476.78;5054151;28;20230;-68
2023/11/13 05:04:47;;;;;;;0.50;0.50;;;19.40;59.10;;;17.96;48.25;94476.53;5055044;28;20197;-68
2023/11/13 05:07:17;;;;;;;0.40;0.40;;;19.40;59.00;;;17.91;48.60;94479.09;5054294;28;20609;-70
2023/11/13 05:09:46;;;;;;;0.50;0.50;;;19.40;59.00;;;17.92;48.44;94478.84;5055425;28;20192;-71
2023/11/13 05:12:15;;;;;;;0.50;0.50;;;19.30;58.90;;;17.90;48.50;94474.84;5055257;28;20199;-70
2023/11/13 05:14:43;;;;;;;0.40;0.40;;;19.40;59.10;;;17.93;48.71;94477.81;5055296;28;20227;-70
2023/11/13 05:17:11;;;;;;;0.40;0.40;;;19.40;59.10;;;17.99;48.60;94491.97;5055362;28;20200;-68
2023/11/13 05:19:39;;;;;;;0.40;0.40;;;19.40;59.00;;;17.96;48.24;94470.44;5055538;28;20253;-68
2023/11/13 05:22:07;;;;;;;0.40;0.40;;;19.40;59.10;;;17.94;48.51;94478.59;5053985;28;20199;-68
2023/11/13 05:24:35;;;;;;;0.50;0.50;;;19.40;59.00;;;17.98;48.51;94474.44;5054951;28;20192;-64
2023/11/13 05:27:05;;;;;;;0.40;0.40;;;19.40;59.00;;;17.92;48.64;94467.44;5053899;28;20276;-68
2023/11/13 05:29:33;;;;;;;0.40;0.40;;;19.40;59.00;;;17.98;48.17;94466.50;5054943;28;20544;-69
2023/11/13 05:32:03;;;;;;;0.50;0.50;;;19.40;59.10;;;17.98;48.52;94455.88;5053884;28;20190;-68
2023/11/13 05:34:31;;;;;;;0.50;0.50;;;19.30;58.80;;;17.99;48.21;94473.41;5053647;28;20673;-65
2023/11/13 05:36:58;;;;;;;0.50;0.50;;;19.40;59.00;;;17.94;48.11;94460.03;5054786;28;20203;-68
2023/11/13 05:39:27;;;;;;;0.40;0.40;;;19.30;58.90;;;18.00;48.08;94474.97;5054840;28;20196;-67
2023/11/13 05:41:54;;;;;;;0.52;0.52;;;19.40;59.00;;;18.00;48.68;94472.31;5054828;28;20232;-66
2023/11/13 05:44:22;;;;;;;0.40;0.40;;;19.40;59.00;;;17.98;48.18;94482.41;5054340;28;20192;-69
2023/11/13 05:46:49;;;;;;;0.47;0.47;;;19.40;59.00;;;18.00;48.46;94484.81;5054589;28;20224;-70
2023/11/13 05:49:17;;;;;;;0.50;0.50;;;19.40;59.10;;;17.95;48.56;94474.13;5054441;28;20200;-71
2023/11/13 05:51:46;;;;;;;0.45;0.45;;;19.40;59.00;;;17.95;48.58;94472.28;5054387;28;20200;-70
2023/11/13 05:54:14;;;;;;;0.50;0.50;;;19.40;59.00;;;17.95;48.64;94456.34;5053200;28;20198;-69
2023/11/13 05:56:41;;;;;;;0.43;0.43;;;19.40;58.90;;;17.97;48.69;94469.38;5053113;28;20225;-63
2023/11/13 05:59:09;;;;;;;0.43;0.43;;;19.40;59.00;;;17.97;47.90;94466.72;5053614;28;20187;-68
2023/11/13 06:01:37;;;;;;;0.50;0.50;;;19.40;58.90;;;17.96;48.53;94473.09;5054933;28;20558;-67
2023/11/13 06:04:04;;;;;;;0.43;0.43;;;19.40;59.00;;;18.01;48.13;94497.81;5036869;28;20201;-68
2023/11/13 06:06:32;;;;;;;0.50;0.50;;;19.40;59.00;;;17.95;48.40;94482.09;5036445;28;20255;-66
2023/11/13 06:09:00;;;;;;;0.47;0.47;;;19.40;59.00;;;18.02;48.53;94488.03;5053062;28;20649;-70
2023/11/13 06:11:27;;;;;;;0.50;0.50;;;19.40;58.90;;;18.01;48.26;94484.53;5053067;28;20250;-66
2023/11/13 06:13:55;;;;;;;0.40;0.40;;;19.40;59.00;;;18.03;48.27;94484.31;5054288;28;20234;-69
2023/11/13 06:16:23;;;;;;;0.40;0.40;;;19.40;59.00;;;18.01;48.17;94471.28;5052452;28;20608;-68
2023/11/13 06:18:52;;;;;;;0.60;0.60;;;19.40;59.00;;;18.03;47.90;94473.69;5054020;28;20191;-67
2023/11/13 06:21:22;;;;;;;0.40;0.40;;;19.40;58.90;;;18.03;48.26;94479.81;5052911;28;20727;-70
2023/11/13 06:23:50;;;;;;;0.40;0.40;;;19.40;58.80;;;18.03;48.55;94487.75;5053939;28;20192;-65
2023/11/13 06:26:18;;;;;;;0.50;0.50;;;19.40;58.90;;;18.02;48.05;94475.53;5053459;28;20681;-70
2023/11/13 06:28:46;;;;;;;0.43;0.43;;;19.40;58.80;;;17.95;48.04;94471.50;5052800;28;20547;-70
2023/11/13 06:31:13;;;;;;;0.50;0.50;;;19.40;58.90;;;17.96;48.46;94471.22;5052997;28;20594;-70
2023/11/13 06:33:44;;;;;;;0.52;0.52;;;19.40;58.80;;;18.01;47.84;94483.75;5052467;28;20209;-70
2023/11/13 06:36:12;;;;;;;0.50;0.50;;;19.40;58.90;;;18.04;48.46;94493.84;5052523;28;20241;-70
2023/11/13 06:38:39;;;;;;;0.40;0.40;;;19.40;58.80;;;18.03;48.02;94485.09;5053640;28;20266;-70
2023/11/13 06:41:07;;;;;;;0.60;0.60;;;19.40;58.80;;;18.04;48.37;94491.22;5052842;28;20199;-70
2023/11/13 06:43:36;;;;;;;0.40;0.40;;;19.40;58.90;;;18.02;48.00;94488.03;5036164;28;20200;-66
2023/11/13 06:46:03;;;;;;;0.50;0.50;;;19.40;58.90;;;18.02;47.99;94483.50;5053538;28;20233;-71
2023/11/13 06:48:33;;;;;;;0.40;0.40;;;19.40;58.90;;;18.05;48.22;94479.53;5052311;28;20197;-70
2023/11/13 06:51:01;;;;;;;0.60;0.60;;;19.40;58.90;;;18.05;47.84;94479.53;5036261;28;20227;-63
2023/11/13 06:53:29;;;;;;;0.40;0.40;;;19.40;58.80;;;17.98;48.18;94465.66;5052544;28;20203;-71
2023/11/13 06:56:00;;;;;;;0.40;0.40;;;19.40;58.80;;;18.03;48.36;94474.50;5052219;28;20195;-69
2023/11/13 06:58:28;;;;;;;0.50;0.50;;;19.40;58.70;;;18.01;47.92;94465.19;5051760;28;20318;-68
2023/11/13 07:00:57;;;;;;;0.40;0.40;;;19.40;58.90;;;17.99;48.59;94460.13;5035562;28;20188;-63
2023/11/13 07:03:25;;;;;;;0.40;0.40;;;19.40;58.80;;;18.04;47.85;94462.00;5053117;28;20193;-69
2023/11/13 07:05:53;;;;;;;0.40;0.40;;;19.40;58.90;;;18.03;48.23;94461.22;5051969;28;20255;-70
2023/11/13 07:08:21;;;;;;;0.40;0.40;;;19.40;58.80;;;18.04;48.48;94459.34;5051898;28;20710;-70
2023/11/13 07:10:50;;;;;;;0.50;0.50;;;19.40;58.80;;;18.05;48.20;94463.63;5051786;28;20199;-68
2023/11/13 07:13:18;;;;;;;0.50;0.50;;;19.40;58.80;;;17.98;47.87;94461.19;5051656;28;20204;-68
2023/11/13 07:15:47;;;;;;;0.40;0.40;;;19.40;58.90;;;18.04;47.97;94470.78;5052954;28;20593;-71
2023/11/13 07:18:16;;;;;;;0.43;0.43;;;19.40;58.80;;;18.06;48.44;94479.28;5053020;28;20211;-71
2023/11/13 07:20:46;;;;;;;0.40;0.40;;;19.40;58.80;;;18.06;48.18;94476.63;5052184;28;20192;-62
2023/11/13 07:23:17;;;;;;;0.50;0.50;;;19.40;58.80;;;18.07;48.40;94480.09;5053078;28;20193;-70
2023/11/13 07:25:47;;;;;;;0.50;0.50;;;19.40;58.80;;;18.07;47.86;94475.59;5051533;28;20220;-66
2023/11/13 07:28:16;;;;;;;0.40;0.40;;;19.40;58.90;;;18.08;47.89;94481.72;5051462;28;20201;-70
2023/11/13 07:30:44;;;;;;;0.40;0.40;;;19.40;58.80;;;18.01;48.07;94470.50;5051901;28;20194;-69
2023/11/13 07:33:11;;;;;;;0.40;0.40;;;19.40;58.80;;;18.10;47.83;94484.09;5052054;28;20195;-70
2023/11/13 07:35:40;;;;;;;0.50;0.50;;;19.40;58.80;;;18.06;48.17;94470.53;5052841;28;20205;-69
2023/11/13 07:38:09;;;;;;;0.40;0.40;;;19.50;58.90;;;18.11;48.40;94469.78;5051615;28;20208;-67
2023/11/13 07:40:37;;;;;;;0.50;0.50;;;19.50;58.90;;;17.96;47.98;94439.38;5052520;28;20260;-70
2023/11/13 07:43:08;;;;;;;0.60;0.60;;;19.40;58.70;;;18.11;48.05;94467.13;5052537;28;20669;-69
2023/11/13 07:45:38;;;;;;;0.50;0.50;;;19.40;58.70;;;18.12;47.97;94466.88;5051416;28;20621;-70
2023/11/13 07:48:07;;;;;;;0.50;0.50;;;19.40;58.80;;;18.11;48.03;94462.63;5051490;28;20206;-64
2023/11/13 07:50:37;;;;;;;0.40;0.40;;;19.40;58.70;;;18.06;48.18;94458.06;5052476;28;20202;-66
2023/11/13 07:53:25;;;;;;;0.40;0.40;;;19.50;58.80;;;18.11;47.99;94448.56;5052625;28;20197;-67
2023/11/13 07:55:54;;;;;;;0.43;0.43;;;19.50;58.80;;;18.13;48.12;94451.78;5051406;28;20277;-66
2023/11/13 07:58:23;;;;;;;0.40;0.40;;;19.50;58.80;;;18.14;48.03;94445.38;5052198;28;20227;-69
2023/11/13 08:00:53;;;;;;;0.40;0.40;;;19.50;58.80;;;18.12;48.05;94443.00;5052817;28;20700;-67
2023/11/13 08:03:24;;;;;;;0.40;0.40;;;19.50;58.80;;;18.07;48.24;94442.94;5051441;28;20275;-70
2023/11/13 08:05:52;;;;;;;0.40;0.40;;;19.50;58.80;;;18.07;48.08;94445.59;5051211;28;20675;-64
2023/11/13 08:08:20;;;;;;;0.50;0.50;;;19.50;58.90;;;18.14;47.89;94458.66;5051289;28;20196;-69
2023/11/13 08:10:48;;;;;;;0.50;0.50;;;19.50;58.80;;;18.15;48.21;94461.09;5051166;28;20200;-67
2023/11/13 08:13:18;;;;;;;0.50;0.50;;;19.50;58.90;;;18.14;47.98;94459.47;5052714;28;20203;-65
2023/11/13 08:15:46;;;;;;;0.40;0.40;;;19.50;58.80;;;18.15;47.99;94450.47;5051076;28;20595;-68
2023/11/13 08:18:18;;;;;;;0.50;0.50;;;19.50;58.70;;;18.11;47.90;94445.91;5052121;28;20223;-70
2023/11/13 08:20:47;;;;;;;0.50;0.50;;;19.50;58.80;;;18.17;48.06;94451.00;5052304;28;20656;-69
2023/11/13 08:23:15;;;;;;;0.40;0.40;;;19.50;58.90;;;18.18;48.29;94457.13;5052730;28;20205;-69
2023/11/13 08:25:50;;;;;;;0.40;0.40;;;19.50;58.80;;;18.17;48.09;94451.00;5037366;28;20675;-68
2023/11/13 08:28:17;;;;;;;0.60;0.60;;;19.50;58.70;;;18.18;48.12;94454.47;5056112;28;20655;-68
2023/11/13 08:30:49;;;;;;;0.40;0.40;;;19.50;58.70;;;18.17;47.95;94442.25;5055941;28;20192;-70
2023/11/13 08:33:17;;;;;;;0.60;0.60;;;19.50;58.70;;;18.14;48.39;94445.38;5056147;28;20187;-63
2023/11/13 08:35:45;;;;;;;0.40;0.40;;;19.50;58.70;;;18.19;48.00;94456.88;5056361;28;20337;-70
2023/11/13 08:38:12;;;;;;;0.47;0.47;;;19.50;58.70;;;18.21;47.82;94453.97;5054765;28;20224;-64
2023/11/13 08:40:40;;;;;;;0.40;0.40;;;19.50;58.70;;;18.15;47.85;94449.66;5056122;28;20193;-67
2023/11/13 08:43:10;;;;;;;0.57;0.57;;;19.50;58.70;;;18.20;47.92;94469.09;5056071;28;20204;-68
2023/11/13 08:45:44;;;;;;;0.50;0.50;;;19.50;59.10;;;18.18;47.96;94460.56;5054653;28;20237;-70
2023/11/13 08:48:27;;;;;;;0.50;0.50;;;19.50;58.80;;;18.21;48.02;94456.59;5054632;28;20195;-66
2023/11/13 08:51:00;;;;;;;0.40;0.40;;;19.60;58.80;;;18.17;47.96;94456.31;5056322;28;20196;-70
2023/11/13 08:53:29;;;;;;;0.50;0.50;;;19.50;58.80;;;18.22;47.81;94464.34;5054900;28;20231;-69
2023/11/13 08:55:57;;;;;;;0.40;0.40;;;19.50;58.80;;;18.24;48.02;94467.53;5055887;28;20667;-70
2023/11/13 08:58:27;;;;;;;0.40;0.40;;;19.60;58.90;;;18.24;48.22;94464.88;5054495;28;20316;-69
2023/11/13 09:00:55;;;;;;;0.50;0.50;;;19.50;58.80;;;18.26;48.35;94469.13;5055648;28;20271;-69
2023/11/13 09:03:29;;;;;;;0.43;0.43;;;19.60;58.80;;;18.24;48.27;94459.56;5055648;28;20217;-67
2023/11/13 09:05:58;;;;;;;0.50;0.50;;;19.50;58.80;;;18.21;48.36;94446.81;5054398;28;20217;-67
2023/11/13 09:08:28;;;;;;;0.43;0.43;;;19.60;58.90;;;18.23;47.84;94446.56;5054003;28;20196;-69
2023/11/13 09:10:58;;;;;;;0.50;0.50;;;19.60;58.90;;;18.28;48.04;94456.41;5055886;28;20663;-68
2023/11/13 09:13:26;;;;;;;0.50;0.50;;;19.60;58.90;;;18.29;48.36;94450.84;5055368;28;20192;-70
2023/11/13 09:15:54;;;;;;;0.40;0.40;;;19.60;58.80;;;18.29;48.03;94463.34;5055539;28;20294;-69
2023/11/13 09:18:26;;;;;;;0.45;0.45;;;19.60;58.90;;;18.26;48.16;94446.06;5053745;28;20197;-70
2023/11/13 09:20:55;;;;;;;0.40;0.40;;;19.60;58.90;;;18.31;48.03;94461.22;5054807;28;20230;-66
2023/11/13 09:23:22;;;;;;;0.50;0.50;;;19.60;58.90;;;18.33;47.76;94459.13;5055341;28;20278;-68
2023/11/13 09:25:50;;;;;;;0.40;0.40;;;19.60;58.90;;;18.28;48.48;94451.91;5054438;28;20191;-69
2023/11/13 09:28:18;;;;;;;0.50;0.50;;;19.60;58.80;;;18.31;48.38;94455.91;5054697;28;20227;-70
2023/11/13 09:30:46;;;;;;;0.50;0.50;;;19.60;58.90;;;18.36;48.34;94464.72;5037674;28;20230;-67
2023/11/13 09:33:16;;;;;;;0.40;0.40;;;19.60;58.80;;;18.37;47.92;94465.50;5037202;28;20201;-70
2023/11/13 09:35:46;;;;;;;0.50;0.50;;;19.60;58.90;;;18.32;48.45;94455.69;5037044;28;20227;-71
2023/11/13 09:38:13;;;;;;;0.50;0.50;;;19.60;58.90;;;18.39;48.16;94461.59;5054019;28;20642;-67
2023/11/13 09:40:41;;;;;;;0.50;0.50;;;19.70;58.90;;;18.40;48.18;94463.16;5055254;28;20658;-66
2023/11/13 09:43:34;;;;;;;0.40;0.40;;;19.60;58.80;;;18.39;48.26;94456.28;5053798;28;20196;-69
2023/11/13 09:46:08;;;;;;;0.40;0.40;;;19.70;58.90;;;18.40;48.24;94457.06;5053652;28;20270;-66
2023/11/13 09:48:49;;;;;;;0.40;0.40;;;19.70;59.00;;;18.40;47.87;94449.88;5037261;28;20288;-68
2023/11/13 09:51:20;;;;;;;0.40;0.40;;;19.70;58.90;;;18.41;47.63;94453.34;5036922;28;20191;-62
2023/11/13 09:54:00;;;;;;;0.50;0.50;;;19.70;58.90;;;18.42;48.27;94462.13;5054968;28;20210;-69
2023/11/13 09:56:29;;;;;;;0.50;0.50;;;19.70;58.90;;;18.33;48.37;94443.97;5053831;28;20207;-69
2023/11/13 09:58:59;;;;;;;0.50;0.50;;;19.70;58.90;;;18.43;47.81;94447.78;5053203;28;20198;-68
2023/11/13 10:01:28;;;;;;;0.50;0.50;;;19.70;58.80;;;18.39;47.90;94437.69;5020505;28;20255;-66
2023/11/13 10:04:01;;;;;;;0.43;0.43;;;19.70;58.90;;;18.44;47.99;94452.84;5054214;28;20196;-69
2023/11/13 10:06:29;;;;;;;0.40;0.40;;;19.70;58.90;;;18.45;47.99;94448.34;5052899;28;20688;-66
2023/11/13 10:08:59;;;;;;;0.40;0.40;;;19.70;58.90;;;18.46;48.33;94445.44;5036905;28;20197;-68
2023/11/13 10:11:29;;;;;;;0.50;0.50;;;19.80;59.00;;;18.47;48.30;94444.38;5069608;28;20613;-66
2023/11/13 10:14:17;;;;;;;0.50;0.50;;;19.80;59.00;;;18.48;48.34;94443.34;5053278;28;20205;-66
2023/11/13 10:17:03;;;;;;;0.40;0.40;;;19.70;58.90;;;18.49;48.37;94433.50;5052968;28;20201;-62
2023/11/13 10:19:34;;;;;;;0.50;0.50;;;19.70;58.80;;;18.50;47.81;94433.22;5054208;28;20250;-69
2023/11/13 10:22:03;;;;;;;0.40;0.40;;;19.80;59.00;;;18.51;47.76;94434.06;5036763;28;20195;-69
2023/11/13 10:24:31;;;;;;;0.40;0.40;;;19.80;59.00;;;18.53;48.21;94430.09;5053814;28;20237;-66
2023/11/13 10:27:13;;;;;;;0.50;0.50;;;19.80;59.10;;;18.55;47.78;94430.66;5037921;28;20243;-66